createdAt,value
2023-04-27T00:00:33.756Z,94971.00
2023-04-27T00:01:33.814Z,94967.00
2023-04-27T00:02:33.953Z,94967.00
2023-04-27T00:03:34.006Z,94965.00
2023-04-27T00:04:34.004Z,94958.00
2023-04-27T00:05:33.892Z,94956.00
2023-04-27T00:06:33.880Z,94958.00
2023-04-27T00:07:33.948Z,94958.00
2023-04-27T00:08:33.981Z,94960.00
2023-04-27T00:09:34.009Z,94958.00
2023-04-27T00:10:34.054Z,94960.00
2023-04-27T00:11:34.079Z,94956.00
2023-04-27T00:12:34.107Z,94956.00
2023-04-27T00:13:34.075Z,94956.00
2023-04-27T00:14:34.088Z,94952.00
2023-04-27T00:15:34.154Z,94954.00
2023-04-27T00:16:34.238Z,94950.00
2023-04-27T00:17:34.220Z,94952.00
2023-04-27T00:18:34.176Z,94952.00
2023-04-27T00:19:34.225Z,94950.00
2023-04-27T00:20:34.257Z,94952.00
2023-04-27T00:21:34.292Z,94952.00
2023-04-27T00:22:34.322Z,94952.00
2023-04-27T00:23:34.710Z,94950.00
2023-04-27T00:24:34.350Z,94950.00
2023-04-27T00:25:34.373Z,94950.00
2023-04-27T00:26:34.415Z,94948.00
2023-04-27T00:27:34.437Z,94946.00
2023-04-27T00:28:34.409Z,94946.00
2023-04-27T00:29:34.414Z,94952.00
2023-04-27T00:30:34.432Z,94946.00
2023-04-27T00:31:34.485Z,94948.00
2023-04-27T00:32:34.591Z,94952.00
2023-04-27T00:33:34.553Z,94952.00
2023-04-27T00:34:34.552Z,94948.00
2023-04-27T00:35:34.628Z,94950.00
2023-04-27T00:36:34.619Z,94948.00
2023-04-27T00:37:34.654Z,94948.00
2023-04-27T00:38:34.662Z,94946.00
2023-04-27T00:39:34.719Z,94946.00
2023-04-27T00:40:34.707Z,94946.00
2023-04-27T00:41:34.713Z,94944.00
2023-04-27T00:42:34.783Z,94942.00
2023-04-27T00:43:34.799Z,94940.00
2023-04-27T00:44:34.799Z,94942.00
2023-04-27T00:45:34.814Z,94940.00
2023-04-27T00:46:34.830Z,94942.00
2023-04-27T00:47:34.920Z,94944.00
2023-04-27T00:48:34.886Z,94946.00
2023-04-27T00:49:34.879Z,94942.00
2023-04-27T00:50:34.892Z,94948.00
2023-04-27T00:51:34.901Z,94948.00
2023-04-27T00:52:34.911Z,94946.00
2023-04-27T00:53:34.912Z,94946.00
2023-04-27T00:54:34.964Z,94942.00
2023-04-27T00:55:34.982Z,94942.00
2023-04-27T00:56:34.997Z,94940.00
2023-04-27T00:57:35.054Z,94938.00
2023-04-27T00:58:35.049Z,94936.00
2023-04-27T00:59:35.016Z,94938.00
2023-04-27T01:00:35.044Z,94938.00
2023-04-27T01:01:35.089Z,94936.00
2023-04-27T01:02:35.243Z,94936.00
2023-04-27T01:03:35.310Z,94936.00
2023-04-27T01:04:35.242Z,94938.00
2023-04-27T01:05:35.142Z,94938.00
2023-04-27T01:06:35.164Z,94940.00
2023-04-27T01:07:35.218Z,94940.00
2023-04-27T01:08:36.261Z,94942.00
2023-04-27T01:09:35.235Z,94940.00
2023-04-27T01:10:35.257Z,94940.00
2023-04-27T01:11:35.209Z,94940.00
2023-04-27T01:12:35.283Z,94940.00
2023-04-27T01:13:35.256Z,94944.00
2023-04-27T01:14:35.275Z,94944.00
2023-04-27T01:15:35.308Z,94944.00
2023-04-27T01:16:35.394Z,94940.00
2023-04-27T01:17:35.401Z,94946.00
2023-04-27T01:18:35.394Z,94948.00
2023-04-27T01:19:35.399Z,94942.00
2023-04-27T01:20:35.434Z,94940.00
2023-04-27T01:21:35.426Z,94944.00
2023-04-27T01:22:35.504Z,94942.00
2023-04-27T01:23:35.548Z,94940.00
2023-04-27T01:24:35.603Z,94942.00
2023-04-27T01:25:35.595Z,94942.00
2023-04-27T01:26:35.637Z,94940.00
2023-04-27T01:27:35.720Z,94936.00
2023-04-27T01:28:35.705Z,94936.00
2023-04-27T01:29:35.735Z,94936.00
2023-04-27T01:30:35.773Z,94936.00
2023-04-27T01:31:35.866Z,94938.00
2023-04-27T01:32:35.886Z,94938.00
2023-04-27T01:33:35.860Z,94940.00
2023-04-27T01:34:35.895Z,94940.00
2023-04-27T01:35:35.927Z,94942.00
2023-04-27T01:36:35.998Z,94940.00
2023-04-27T01:37:36.027Z,94938.00
2023-04-27T01:38:36.097Z,94938.00
2023-04-27T01:39:36.116Z,94936.00
2023-04-27T01:40:36.156Z,94936.00
2023-04-27T01:41:36.223Z,94934.00
2023-04-27T01:42:36.269Z,94934.00
2023-04-27T01:43:36.326Z,94936.00
2023-04-27T01:44:36.335Z,94936.00
2023-04-27T01:45:36.388Z,94936.00
2023-04-27T01:46:36.445Z,94936.00
2023-04-27T01:47:36.499Z,94936.00
2023-04-27T01:48:36.521Z,94936.00
2023-04-27T01:49:36.518Z,94934.00
2023-04-27T01:50:36.532Z,94932.00
2023-04-27T01:51:36.604Z,94930.00
2023-04-27T01:52:36.648Z,94934.00
2023-04-27T01:53:36.648Z,94934.00
2023-04-27T01:54:36.688Z,94938.00
2023-04-27T01:55:36.699Z,94938.00
2023-04-27T01:56:36.772Z,94938.00
2023-04-27T01:57:36.845Z,94936.00
2023-04-27T01:58:36.862Z,94938.00
2023-04-27T01:59:36.890Z,94932.00
2023-04-27T02:00:36.961Z,94932.00
2023-04-27T02:01:37.027Z,94934.00
2023-04-27T02:02:37.137Z,94934.00
2023-04-27T02:03:37.062Z,94936.00
2023-04-27T02:04:37.147Z,94940.00
2023-04-27T02:05:37.039Z,94938.00
2023-04-27T02:06:37.087Z,94938.00
2023-04-27T02:07:37.144Z,94938.00
2023-04-27T02:08:37.205Z,94938.00
2023-04-27T02:09:37.230Z,94934.00
2023-04-27T02:10:37.262Z,94936.00
2023-04-27T02:11:37.276Z,94934.00
2023-04-27T02:12:37.303Z,94936.00
2023-04-27T02:13:37.318Z,94932.00
2023-04-27T02:14:37.382Z,94932.00
2023-04-27T02:15:37.386Z,94936.00
2023-04-27T02:16:37.471Z,94938.00
2023-04-27T02:17:37.553Z,94942.00
2023-04-27T02:18:37.528Z,94940.00
2023-04-27T02:19:37.556Z,94942.00
2023-04-27T02:20:37.556Z,94944.00
2023-04-27T02:21:37.642Z,94942.00
2023-04-27T02:22:37.649Z,94942.00
2023-04-27T02:23:37.696Z,94942.00
2023-04-27T02:24:37.712Z,94938.00
2023-04-27T02:25:37.764Z,94938.00
2023-04-27T02:26:37.801Z,94940.00
2023-04-27T02:27:37.824Z,94944.00
2023-04-27T02:28:37.852Z,94946.00
2023-04-27T02:29:37.903Z,94950.00
2023-04-27T02:30:37.951Z,94954.00
2023-04-27T02:31:37.983Z,94952.00
2023-04-27T02:32:37.960Z,94952.00
2023-04-27T02:33:38.021Z,94954.00
2023-04-27T02:34:38.017Z,94952.00
2023-04-27T02:35:38.034Z,94948.00
2023-04-27T02:36:37.998Z,94950.00
2023-04-27T02:37:38.068Z,94950.00
2023-04-27T02:38:38.097Z,94952.00
2023-04-27T02:39:38.138Z,94956.00
2023-04-27T02:40:38.180Z,94956.00
2023-04-27T02:41:38.270Z,94954.00
2023-04-27T02:42:38.211Z,94952.00
2023-04-27T02:43:38.302Z,94950.00
2023-04-27T02:44:38.310Z,94948.00
2023-04-27T02:45:38.353Z,94946.00
2023-04-27T02:46:38.405Z,94950.00
2023-04-27T02:47:38.472Z,94952.00
2023-04-27T02:48:38.513Z,94954.00
2023-04-27T02:49:38.559Z,94950.00
2023-04-27T02:50:38.513Z,94950.00
2023-04-27T02:51:38.556Z,94954.00
2023-04-27T02:52:38.589Z,94954.00
2023-04-27T02:53:38.600Z,94950.00
2023-04-27T02:54:38.666Z,94952.00
2023-04-27T02:55:38.732Z,94952.00
2023-04-27T02:56:38.793Z,94954.00
2023-04-27T02:57:38.852Z,94956.00
2023-04-27T02:58:38.860Z,94958.00
2023-04-27T02:59:38.912Z,94958.00
2023-04-27T03:00:38.943Z,94960.00
2023-04-27T03:01:39.104Z,94960.00
2023-04-27T03:02:39.212Z,94960.00
2023-04-27T03:03:39.337Z,94960.00
2023-04-27T03:04:39.089Z,94956.00
2023-04-27T03:05:39.069Z,94954.00
2023-04-27T03:06:39.096Z,94948.00
2023-04-27T03:07:39.130Z,94952.00
2023-04-27T03:08:39.212Z,94948.00
2023-04-27T03:09:39.219Z,94952.00
2023-04-27T03:10:39.226Z,94952.00
2023-04-27T03:11:39.247Z,94954.00
2023-04-27T03:12:39.300Z,94952.00
2023-04-27T03:13:39.303Z,94952.00
2023-04-27T03:14:39.315Z,94950.00
2023-04-27T03:15:39.335Z,94948.00
2023-04-27T03:16:39.376Z,94948.00
2023-04-27T03:17:39.373Z,94950.00
2023-04-27T03:18:39.357Z,94956.00
2023-04-27T03:19:39.380Z,94956.00
2023-04-27T03:20:39.400Z,94956.00
2023-04-27T03:21:39.407Z,94956.00
2023-04-27T03:22:39.408Z,94958.00
2023-04-27T03:23:39.412Z,94956.00
2023-04-27T03:24:39.443Z,94961.00
2023-04-27T03:25:39.505Z,94960.00
2023-04-27T03:26:39.496Z,94961.00
2023-04-27T03:27:39.562Z,94965.00
2023-04-27T03:28:39.548Z,94963.00
2023-04-27T03:29:39.576Z,94965.00
2023-04-27T03:30:39.556Z,94965.00
2023-04-27T03:31:39.642Z,94965.00
2023-04-27T03:32:39.645Z,94965.00
2023-04-27T03:33:39.678Z,94961.00
2023-04-27T03:34:39.652Z,94963.00
2023-04-27T03:35:39.720Z,94960.00
2023-04-27T03:36:39.713Z,94961.00
2023-04-27T03:37:39.752Z,94965.00
2023-04-27T03:38:39.793Z,94965.00
2023-04-27T03:39:39.771Z,94969.00
2023-04-27T03:40:39.795Z,94975.00
2023-04-27T03:41:39.841Z,94971.00
2023-04-27T03:42:39.923Z,94973.00
2023-04-27T03:43:39.931Z,94973.00
2023-04-27T03:44:40.059Z,94973.00
2023-04-27T03:45:40.077Z,94971.00
2023-04-27T03:46:40.097Z,94975.00
2023-04-27T03:47:40.267Z,94979.00
2023-04-27T03:48:40.172Z,94977.00
2023-04-27T03:49:40.235Z,94977.00
2023-04-27T03:50:40.256Z,94983.00
2023-04-27T03:51:40.322Z,94981.00
2023-04-27T03:52:40.389Z,94981.00
2023-04-27T03:53:40.372Z,94979.00
2023-04-27T03:54:40.464Z,94981.00
2023-04-27T03:55:40.512Z,94981.00
2023-04-27T03:56:40.554Z,94981.00
2023-04-27T03:57:40.655Z,94983.00
2023-04-27T03:58:40.644Z,94987.00
2023-04-27T03:59:40.660Z,94985.00
2023-04-27T04:00:40.756Z,94987.00
2023-04-27T04:01:40.858Z,94991.00
2023-04-27T04:02:40.924Z,94991.00
2023-04-27T04:03:40.938Z,94991.00
2023-04-27T04:04:41.110Z,94995.00
2023-04-27T04:05:40.915Z,94997.00
2023-04-27T04:06:40.904Z,95003.00
2023-04-27T04:07:40.944Z,95003.00
2023-04-27T04:08:41.000Z,95005.00
2023-04-27T04:09:41.070Z,95009.00
2023-04-27T04:10:41.071Z,95007.00
2023-04-27T04:11:41.123Z,95013.00
2023-04-27T04:12:41.139Z,95013.00
2023-04-27T04:13:41.176Z,95016.00
2023-04-27T04:14:41.193Z,95018.00
2023-04-27T04:15:41.276Z,95022.00
2023-04-27T04:16:41.269Z,95022.00
2023-04-27T04:17:41.393Z,95022.00
2023-04-27T04:18:41.333Z,95022.00
2023-04-27T04:19:41.424Z,95026.00
2023-04-27T04:20:41.426Z,95028.00
2023-04-27T04:21:41.440Z,95028.00
2023-04-27T04:22:41.471Z,95034.00
2023-04-27T04:23:41.460Z,95036.00
2023-04-27T04:24:41.557Z,95040.00
2023-04-27T04:25:41.656Z,95040.00
2023-04-27T04:26:41.606Z,95042.00
2023-04-27T04:27:41.658Z,95042.00
2023-04-27T04:28:41.697Z,95042.00
2023-04-27T04:29:41.717Z,95044.00
2023-04-27T04:30:41.790Z,95044.00
2023-04-27T04:31:41.827Z,95046.00
2023-04-27T04:32:41.838Z,95044.00
2023-04-27T04:33:41.820Z,95048.00
2023-04-27T04:34:41.881Z,95048.00
2023-04-27T04:35:41.888Z,95050.00
2023-04-27T04:36:41.940Z,95052.00
2023-04-27T04:37:42.054Z,95054.00
2023-04-27T04:38:41.987Z,95054.00
2023-04-27T04:39:42.003Z,95056.00
2023-04-27T04:40:43.222Z,95060.00
2023-04-27T04:41:42.068Z,95062.00
2023-04-27T04:42:42.086Z,95060.00
2023-04-27T04:43:42.033Z,95062.00
2023-04-27T04:44:42.057Z,95062.00
2023-04-27T04:45:42.079Z,95065.00
2023-04-27T04:46:42.092Z,95063.00
2023-04-27T04:47:42.064Z,95063.00
2023-04-27T04:48:42.062Z,95069.00
2023-04-27T04:49:42.387Z,95067.00
2023-04-27T04:50:42.098Z,95067.00
2023-04-27T04:51:42.051Z,95075.00
2023-04-27T04:52:42.024Z,95073.00
2023-04-27T04:53:41.963Z,95073.00
2023-04-27T04:54:41.949Z,95073.00
2023-04-27T04:55:42.082Z,95075.00
2023-04-27T04:56:41.966Z,95077.00
2023-04-27T04:57:41.966Z,95077.00
2023-04-27T04:58:41.979Z,95079.00
2023-04-27T04:59:41.943Z,95077.00
2023-04-27T05:00:41.905Z,95083.00
2023-04-27T05:01:41.929Z,95081.00
2023-04-27T05:02:43.624Z,95075.00
2023-04-27T05:03:42.025Z,95079.00
2023-04-27T05:04:41.935Z,95075.00
2023-04-27T05:05:41.880Z,95073.00
2023-04-27T05:06:41.867Z,95073.00
2023-04-27T05:07:41.881Z,95075.00
2023-04-27T05:08:41.868Z,95077.00
2023-04-27T05:09:41.839Z,95081.00
2023-04-27T05:10:41.855Z,95077.00
2023-04-27T05:11:41.812Z,95083.00
2023-04-27T05:12:41.838Z,95081.00
2023-04-27T05:13:41.827Z,95083.00
2023-04-27T05:14:41.823Z,95085.00
2023-04-27T05:15:41.795Z,95089.00
2023-04-27T05:16:41.911Z,95087.00
2023-04-27T05:17:41.834Z,95093.00
2023-04-27T05:18:42.222Z,95097.00
2023-04-27T05:19:41.783Z,95099.00
2023-04-27T05:20:41.807Z,95101.00
2023-04-27T05:21:41.839Z,95103.00
2023-04-27T05:22:41.851Z,95101.00
2023-04-27T05:23:41.886Z,95103.00
2023-04-27T05:24:41.942Z,95103.00
2023-04-27T05:25:42.033Z,95103.00
2023-04-27T05:26:41.978Z,95101.00
2023-04-27T05:27:42.002Z,95101.00
2023-04-27T05:28:42.035Z,95101.00
2023-04-27T05:29:42.133Z,95101.00
2023-04-27T05:30:42.097Z,95099.00
2023-04-27T05:31:42.199Z,95101.00
2023-04-27T05:32:42.149Z,95101.00
2023-04-27T05:33:42.184Z,95099.00
2023-04-27T05:34:42.230Z,95103.00
2023-04-27T05:35:42.211Z,95103.00
2023-04-27T05:36:42.268Z,95105.00
2023-04-27T05:37:42.307Z,95107.00
2023-04-27T05:38:42.323Z,95107.00
2023-04-27T05:39:42.394Z,95107.00
2023-04-27T05:40:42.345Z,95107.00
2023-04-27T05:41:42.398Z,95110.00
2023-04-27T05:42:42.459Z,95110.00
2023-04-27T05:43:42.553Z,95110.00
2023-04-27T05:44:42.549Z,95114.00
2023-04-27T05:45:42.705Z,95112.00
2023-04-27T05:46:42.671Z,95110.00
2023-04-27T05:47:42.748Z,95110.00
2023-04-27T05:48:42.785Z,95110.00
2023-04-27T05:49:42.818Z,95114.00
2023-04-27T05:50:42.807Z,95112.00
2023-04-27T05:51:42.933Z,95116.00
2023-04-27T05:52:42.926Z,95114.00
2023-04-27T05:53:43.002Z,95116.00
2023-04-27T05:54:43.003Z,95116.00
2023-04-27T05:55:42.996Z,95116.00
2023-04-27T05:56:43.042Z,95116.00
2023-04-27T05:57:43.111Z,95114.00
2023-04-27T05:58:43.108Z,95116.00
2023-04-27T05:59:43.126Z,95114.00
2023-04-27T06:00:43.121Z,95118.00
2023-04-27T06:01:43.185Z,95120.00
2023-04-27T06:02:43.426Z,95116.00
2023-04-27T06:03:43.429Z,95112.00
2023-04-27T06:04:51.283Z,95112.00
2023-04-27T06:05:50.934Z,95116.00
2023-04-27T06:06:43.291Z,95114.00
2023-04-27T06:07:43.275Z,95114.00
2023-04-27T06:08:44.052Z,95110.00
2023-04-27T06:09:43.227Z,95112.00
2023-04-27T06:10:43.284Z,95114.00
2023-04-27T06:11:43.242Z,95116.00
2023-04-27T06:12:45.760Z,95116.00
2023-04-27T06:13:43.202Z,95120.00
2023-04-27T06:14:50.823Z,95118.00
2023-04-27T06:17:02.715Z,95124.00
2023-04-27T06:18:02.778Z,95120.00
2023-04-27T06:19:02.678Z,95120.00
2023-04-27T06:20:02.688Z,95122.00
2023-04-27T06:21:02.711Z,95126.00
2023-04-27T06:22:02.727Z,95130.00
2023-04-27T06:23:02.740Z,95128.00
2023-04-27T06:24:04.297Z,95130.00
2023-04-27T06:25:02.632Z,95126.00
2023-04-27T06:26:02.679Z,95130.00
2023-04-27T06:27:02.636Z,95128.00
2023-04-27T06:28:02.611Z,95126.00
2023-04-27T06:29:02.667Z,95126.00
2023-04-27T06:30:02.716Z,95126.00
2023-04-27T06:31:02.608Z,95126.00
2023-04-27T06:32:02.725Z,95126.00
2023-04-27T06:33:02.663Z,95122.00
2023-04-27T06:34:02.633Z,95126.00
2023-04-27T06:35:02.668Z,95126.00
2023-04-27T06:36:02.682Z,95126.00
2023-04-27T06:37:02.554Z,95126.00
2023-04-27T06:38:02.953Z,95128.00
2023-04-27T06:39:02.569Z,95126.00
2023-04-27T06:40:02.653Z,95128.00
2023-04-27T06:41:02.555Z,95124.00
2023-04-27T06:42:02.576Z,95128.00
2023-04-27T06:43:02.564Z,95128.00
2023-04-27T06:44:02.551Z,95132.00
2023-04-27T06:45:02.556Z,95132.00
2023-04-27T06:46:02.578Z,95130.00
2023-04-27T06:47:02.518Z,95130.00
2023-04-27T06:48:02.854Z,95132.00
2023-04-27T06:49:02.583Z,95134.00
2023-04-27T06:50:02.638Z,95130.00
2023-04-27T06:51:03.321Z,95138.00
2023-04-27T06:52:02.887Z,95138.00
2023-04-27T06:53:02.738Z,95142.00
2023-04-27T06:54:02.726Z,95140.00
2023-04-27T06:55:02.679Z,95146.00
2023-04-27T06:56:02.790Z,95146.00
2023-04-27T06:57:02.734Z,95140.00
2023-04-27T06:58:02.757Z,95140.00
2023-04-27T06:59:02.781Z,95140.00
2023-04-27T07:00:02.827Z,95144.00
2023-04-27T07:01:02.876Z,95144.00
2023-04-27T07:02:02.937Z,95144.00
2023-04-27T07:03:03.479Z,95146.00
2023-04-27T07:04:02.991Z,95144.00
2023-04-27T07:05:03.229Z,95140.00
2023-04-27T07:06:03.176Z,95144.00
2023-04-27T07:07:03.052Z,95140.00
2023-04-27T07:08:05.425Z,95142.00
2023-04-27T07:09:06.014Z,95140.00
2023-04-27T07:10:04.070Z,95142.00
2023-04-27T07:12:22.641Z,95140.00
2023-04-27T07:13:22.591Z,95138.00
2023-04-27T07:14:22.623Z,95134.00
2023-04-27T07:15:22.616Z,95138.00
2023-04-27T07:16:22.654Z,95134.00
2023-04-27T07:17:23.596Z,95136.00
2023-04-27T07:18:22.648Z,95138.00
2023-04-27T07:19:22.602Z,95136.00
2023-04-27T07:20:22.628Z,95136.00
2023-04-27T07:21:22.624Z,95136.00
2023-04-27T07:22:22.570Z,95134.00
2023-04-27T07:23:22.734Z,95134.00
2023-04-27T07:24:22.611Z,95134.00
2023-04-27T07:25:22.662Z,95134.00
2023-04-27T07:26:22.557Z,95132.00
2023-04-27T07:27:22.591Z,95134.00
2023-04-27T07:28:22.643Z,95130.00
2023-04-27T07:29:27.140Z,95128.00
2023-04-27T07:30:22.560Z,95128.00
2023-04-27T07:31:22.649Z,95132.00
2023-04-27T07:32:22.729Z,95132.00
2023-04-27T07:33:22.609Z,95132.00
2023-04-27T07:34:22.539Z,95136.00
2023-04-27T07:35:22.516Z,95134.00
2023-04-27T07:36:23.106Z,95136.00
2023-04-27T07:37:22.558Z,95136.00
2023-04-27T07:38:22.500Z,95138.00
2023-04-27T07:39:22.532Z,95140.00
2023-04-27T07:40:22.489Z,95140.00
2023-04-27T07:41:22.472Z,95140.00
2023-04-27T07:42:22.629Z,95144.00
2023-04-27T07:43:23.144Z,95136.00
2023-04-27T07:44:22.453Z,95142.00
2023-04-27T07:45:23.543Z,95144.00
2023-04-27T07:46:22.583Z,95146.00
2023-04-27T07:47:22.567Z,95146.00
2023-04-27T07:48:22.685Z,95144.00
2023-04-27T07:49:22.903Z,95148.00
2023-04-27T07:50:22.596Z,95148.00
2023-04-27T07:51:22.609Z,95156.00
2023-04-27T07:52:22.687Z,95158.00
2023-04-27T07:53:22.617Z,95158.00
2023-04-27T07:54:22.696Z,95162.00
2023-04-27T07:55:22.685Z,95158.00
2023-04-27T07:56:22.702Z,95158.00
2023-04-27T07:57:22.740Z,95158.00
2023-04-27T07:58:22.744Z,95165.00
2023-04-27T07:59:22.719Z,95167.00
2023-04-27T08:00:22.877Z,95163.00
2023-04-27T08:01:22.948Z,95169.00
2023-04-27T08:02:23.072Z,95171.00
2023-04-27T08:03:23.393Z,95167.00
2023-04-27T08:04:23.217Z,95169.00
2023-04-27T08:05:23.777Z,95171.00
2023-04-27T08:06:23.604Z,95175.00
2023-04-27T08:07:24.091Z,95173.00
2023-04-27T08:08:23.142Z,95169.00
2023-04-27T08:09:23.043Z,95173.00
2023-04-27T08:10:23.027Z,95171.00
2023-04-27T08:11:23.088Z,95173.00
2023-04-27T08:12:23.128Z,95171.00
2023-04-27T08:13:24.816Z,95171.00
2023-04-27T08:14:23.225Z,95169.00
2023-04-27T08:15:23.264Z,95169.00
2023-04-27T08:16:23.330Z,95171.00
2023-04-27T08:17:23.379Z,95171.00
2023-04-27T08:18:23.367Z,95171.00
2023-04-27T08:19:23.318Z,95167.00
2023-04-27T08:20:23.490Z,95171.00
2023-04-27T08:21:23.436Z,95167.00
2023-04-27T08:22:23.482Z,95171.00
2023-04-27T08:23:23.656Z,95167.00
2023-04-27T08:24:23.518Z,95169.00
2023-04-27T08:25:23.593Z,95169.00
2023-04-27T08:26:25.605Z,95169.00
2023-04-27T08:27:23.613Z,95169.00
2023-04-27T08:28:23.562Z,95173.00
2023-04-27T08:29:27.992Z,95169.00
2023-04-27T08:30:24.554Z,95171.00
2023-04-27T08:31:23.549Z,95171.00
2023-04-27T08:32:24.119Z,95173.00
2023-04-27T08:33:23.722Z,95173.00
2023-04-27T08:34:23.697Z,95171.00
2023-04-27T08:35:23.514Z,95169.00
2023-04-27T08:36:23.516Z,95165.00
2023-04-27T08:37:23.432Z,95165.00
2023-04-27T08:38:25.585Z,95160.00
2023-04-27T08:39:23.460Z,95163.00
2023-04-27T08:40:23.508Z,95162.00
2023-04-27T08:41:23.430Z,95163.00
2023-04-27T08:42:23.486Z,95163.00
2023-04-27T08:43:23.542Z,95167.00
2023-04-27T08:44:23.572Z,95167.00
2023-04-27T08:45:23.580Z,95165.00
2023-04-27T08:46:23.687Z,95163.00
2023-04-27T08:47:31.398Z,95162.00
2023-04-27T08:48:24.684Z,95163.00
2023-04-27T08:49:23.722Z,95162.00
2023-04-27T08:50:23.602Z,95162.00
2023-04-27T08:51:23.576Z,95158.00
2023-04-27T08:52:23.631Z,95156.00
2023-04-27T08:53:23.553Z,95146.00
2023-04-27T08:54:23.567Z,95156.00
2023-04-27T08:55:23.549Z,95148.00
2023-04-27T08:56:23.535Z,95158.00
2023-04-27T08:57:23.582Z,95158.00
2023-04-27T08:58:23.566Z,95160.00
2023-04-27T08:59:23.619Z,95156.00
2023-04-27T09:00:23.543Z,95160.00
2023-04-27T09:01:23.598Z,95165.00
2023-04-27T09:02:23.599Z,95165.00
2023-04-27T09:03:23.827Z,95160.00
2023-04-27T09:04:24.025Z,95156.00
2023-04-27T09:05:23.759Z,95148.00
2023-04-27T09:06:23.766Z,95144.00
2023-04-27T09:07:23.780Z,95158.00
2023-04-27T09:08:23.816Z,95158.00
2023-04-27T09:09:23.922Z,95158.00
2023-04-27T09:10:23.861Z,95156.00
2023-04-27T09:11:23.868Z,95156.00
2023-04-27T09:12:23.876Z,95158.00
2023-04-27T09:13:23.879Z,95156.00
2023-04-27T09:14:23.910Z,95148.00
2023-04-27T09:15:23.946Z,95148.00
2023-04-27T09:16:24.063Z,95146.00
2023-04-27T09:17:23.981Z,95144.00
2023-04-27T09:18:24.051Z,95146.00
2023-04-27T09:19:24.059Z,95144.00
2023-04-27T09:20:24.105Z,95144.00
2023-04-27T09:21:24.149Z,95142.00
2023-04-27T09:22:24.182Z,95142.00
2023-04-27T09:23:24.188Z,95138.00
2023-04-27T09:24:24.165Z,95136.00
2023-04-27T09:25:24.173Z,95134.00
2023-04-27T09:26:24.251Z,95138.00
2023-04-27T09:27:24.262Z,95132.00
2023-04-27T09:28:24.321Z,95126.00
2023-04-27T09:29:24.312Z,95130.00
2023-04-27T09:30:24.311Z,95124.00
2023-04-27T09:31:24.433Z,95124.00
2023-04-27T09:32:24.498Z,95128.00
2023-04-27T09:33:24.486Z,95134.00
2023-04-27T09:34:24.505Z,95130.00
2023-04-27T09:35:24.558Z,95128.00
2023-04-27T09:36:25.010Z,95130.00
2023-04-27T09:37:24.549Z,95130.00
2023-04-27T09:38:24.582Z,95126.00
2023-04-27T09:39:24.646Z,95124.00
2023-04-27T09:40:24.648Z,95120.00
2023-04-27T09:41:24.676Z,95114.00
2023-04-27T09:42:24.704Z,95114.00
2023-04-27T09:43:24.691Z,95112.00
2023-04-27T09:44:25.185Z,95110.00
2023-04-27T09:45:24.798Z,95110.00
2023-04-27T09:46:24.867Z,95109.00
2023-04-27T09:47:25.019Z,95109.00
2023-04-27T09:48:24.868Z,95105.00
2023-04-27T09:49:25.160Z,95103.00
2023-04-27T09:50:24.927Z,95105.00
2023-04-27T09:51:24.998Z,95103.00
2023-04-27T09:52:25.074Z,95101.00
2023-04-27T09:53:25.684Z,95097.00
2023-04-27T09:54:25.215Z,95099.00
2023-04-27T09:55:25.083Z,95095.00
2023-04-27T09:56:25.151Z,95093.00
2023-04-27T09:57:25.113Z,95095.00
2023-04-27T09:58:25.189Z,95087.00
2023-04-27T09:59:25.280Z,95085.00
2023-04-27T10:00:25.236Z,95087.00
2023-04-27T10:01:25.403Z,95085.00
2023-04-27T10:02:25.978Z,95089.00
2023-04-27T10:03:25.444Z,95077.00
2023-04-27T10:04:25.739Z,95085.00
2023-04-27T10:05:25.382Z,95083.00
2023-04-27T10:06:25.380Z,95081.00
2023-04-27T10:07:25.446Z,95081.00
2023-04-27T10:08:25.491Z,95077.00
2023-04-27T10:09:25.589Z,95075.00
2023-04-27T10:10:25.506Z,95073.00
2023-04-27T10:11:26.172Z,95071.00
2023-04-27T10:12:25.768Z,95071.00
2023-04-27T10:13:25.735Z,95071.00
2023-04-27T10:14:25.703Z,95067.00
2023-04-27T10:15:25.762Z,95069.00
2023-04-27T10:16:25.872Z,95069.00
2023-04-27T10:17:25.808Z,95065.00
2023-04-27T10:18:26.163Z,95062.00
2023-04-27T10:19:25.906Z,95054.00
2023-04-27T10:20:25.906Z,95054.00
2023-04-27T10:21:25.912Z,95052.00
2023-04-27T10:22:25.957Z,95050.00
2023-04-27T10:23:25.961Z,95050.00
2023-04-27T10:24:26.026Z,95050.00
2023-04-27T10:25:26.037Z,95050.00
2023-04-27T10:26:26.080Z,95054.00
2023-04-27T10:27:26.046Z,95052.00
2023-04-27T10:28:26.111Z,95050.00
2023-04-27T10:29:26.197Z,95046.00
2023-04-27T10:30:26.211Z,95048.00
2023-04-27T10:31:26.283Z,95038.00
2023-04-27T10:32:26.355Z,95044.00
2023-04-27T10:33:26.306Z,95046.00
2023-04-27T10:34:26.360Z,95046.00
2023-04-27T10:35:26.477Z,95044.00
2023-04-27T10:36:26.470Z,95044.00
2023-04-27T10:37:26.449Z,95042.00
2023-04-27T10:38:26.382Z,95038.00
2023-04-27T10:39:39.707Z,95034.00
2023-04-27T10:40:27.430Z,95036.00
2023-04-27T10:41:26.397Z,95028.00
2023-04-27T10:42:26.412Z,95030.00
2023-04-27T10:43:26.410Z,95024.00
2023-04-27T10:44:26.663Z,95030.00
2023-04-27T10:45:27.493Z,95024.00
2023-04-27T10:46:26.426Z,95024.00
2023-04-27T10:47:26.377Z,95018.00
2023-04-27T10:48:26.424Z,95016.00
2023-04-27T10:49:26.337Z,95020.00
2023-04-27T10:50:26.424Z,95020.00
2023-04-27T10:51:26.361Z,95016.00
2023-04-27T10:52:26.348Z,95016.00
2023-04-27T10:53:26.296Z,95018.00
2023-04-27T10:54:26.334Z,95016.00
2023-04-27T10:55:26.303Z,95011.00
2023-04-27T10:56:26.285Z,95013.00
2023-04-27T10:57:26.296Z,95009.00
2023-04-27T10:58:34.644Z,95009.00
2023-04-27T10:59:27.275Z,95011.00
2023-04-27T11:00:26.317Z,95007.00
2023-04-27T11:01:26.313Z,95009.00
2023-04-27T11:02:26.385Z,95001.00
2023-04-27T11:03:26.294Z,95001.00
2023-04-27T11:04:26.277Z,94999.00
2023-04-27T11:05:26.304Z,94995.00
2023-04-27T11:06:26.259Z,94997.00
2023-04-27T11:07:26.368Z,94995.00
2023-04-27T11:08:26.260Z,94995.00
2023-04-27T11:09:26.291Z,94991.00
2023-04-27T11:10:26.263Z,94993.00
2023-04-27T11:11:26.357Z,94999.00
2023-04-27T11:12:26.328Z,94997.00
2023-04-27T11:13:26.356Z,94995.00
2023-04-27T11:14:26.392Z,94995.00
2023-04-27T11:15:26.410Z,94991.00
2023-04-27T11:16:26.563Z,94995.00
2023-04-27T11:17:26.512Z,94991.00
2023-04-27T11:18:26.644Z,94989.00
2023-04-27T11:19:26.642Z,94991.00
2023-04-27T11:20:26.710Z,94993.00
2023-04-27T11:21:26.630Z,94985.00
2023-04-27T11:22:26.679Z,94991.00
2023-04-27T11:23:26.750Z,94985.00
2023-04-27T11:24:26.742Z,94993.00
2023-04-27T11:25:26.788Z,94991.00
2023-04-27T11:26:26.896Z,94987.00
2023-04-27T11:27:26.894Z,94995.00
2023-04-27T11:28:26.867Z,94989.00
2023-04-27T11:29:27.208Z,94983.00
2023-04-27T11:30:26.998Z,94985.00
2023-04-27T11:31:27.032Z,94989.00
2023-04-27T11:32:27.015Z,94989.00
2023-04-27T11:33:27.080Z,94993.00
2023-04-27T11:34:27.161Z,94999.00
2023-04-27T11:35:27.035Z,94995.00
2023-04-27T11:36:27.089Z,94991.00
2023-04-27T11:37:27.150Z,94991.00
2023-04-27T11:38:27.145Z,94989.00
2023-04-27T11:39:27.269Z,94991.00
2023-04-27T11:40:27.232Z,94987.00
2023-04-27T11:41:27.209Z,94987.00
2023-04-27T11:42:27.292Z,94987.00
2023-04-27T11:43:27.311Z,94979.00
2023-04-27T11:44:27.329Z,94981.00
2023-04-27T11:45:27.317Z,94975.00
2023-04-27T11:46:27.361Z,94973.00
2023-04-27T11:47:27.459Z,94979.00